Seabear — WCZ2234 — position and weather

sailwx.info

Track history (hours):
 
Tides and Currents Weather Stations Pressure Air Temp Water Temp Dewpoint Dewpoint Depression Visibility Wind Speed Wind Dir Waves Ship Positions

Seabear

Owner: COVELL, JAMES W, LA JOLLA, CA. More information available from US FCC via Universal Licensing System and Coast Guard Vessel Documentation Center.

Last reported at 2017-Sep-16 02:21 UTC. Time now 2017-Sep-19 16:59 UTC.
Position N 34°10' W 119°14'.

Length 12 m.

Type: Pleasure craft. MMSI: 367394470.

Date/timePositionNaut miles runAvg speedWind from/ knotsBaromVisibWave heightAir tempDewpointWater temp
2017-Sep-16 02:21N 34°10' W 119°14'0 0.6
2017-Sep-16 01:50N 34°10' W 119°13'3 8.2
2017-Sep-16 01:25N 34°07' W 119°16'4 9.4
2017-Sep-16 01:00N 34°04' W 119°18'611.2
2017-Sep-16 00:28N 33°59' W 119°23'814.2
2017-Sep-15 23:56N 33°55' W 119°31'712.1
2017-Sep-15 23:24N 33°51' W 119°37'0 1.1
2017-Sep-15 22:59N 33°52' W 119°37'2 4.7
2017-Sep-15 22:30N 33°54' W 119°39'2 3.7
2017-Sep-15 21:59N 33°54' W 119°36'2 0.4
2017-Sep-15 17:33N 33°53' W 119°35'110.3
2017-Sep-15 17:28N 33°53' W 119°36'9 2.9
2017-Sep-15 14:17N 34°00' W 119°30'516.9
2017-Sep-15 14:00N 34°03' W 119°25'714.5
2017-Sep-15 13:31N 34°07' W 119°18'5 6.1
2017-Sep-15 12:45N 34°10' W 119°14'0 0.0
2017-Sep-15 12:30N 34°10' W 119°14'0 0.0
2017-Sep-15 12:00N 34°10' W 119°14'0 0.0
2017-Sep-15 11:30N 34°10' W 119°14'0 0.0
2017-Sep-15 11:00N 34°10' W 119°14'0 0.0
2017-Sep-15 10:30N 34°10' W 119°14'0 0.0
2017-Sep-15 10:00N 34°10' W 119°14'0 0.0
2017-Sep-15 09:30N 34°10' W 119°14'0 0.0
2017-Sep-15 09:00N 34°10' W 119°14'0 0.0
2017-Sep-15 08:30N 34°10' W 119°14'0 0.0
2017-Sep-15 07:54N 34°10' W 119°14'0 0.0
2017-Sep-15 07:30N 34°10' W 119°14'0 0.0
2017-Sep-15 07:00N 34°10' W 119°14'0 0.0
2017-Sep-15 06:30N 34°10' W 119°14'0 0.0
2017-Sep-15 06:00N 34°10' W 119°14'0 0.0
2017-Sep-15 05:30N 34°10' W 119°14'0 0.0
2017-Sep-15 05:00N 34°10' W 119°14'0 0.0
2017-Sep-15 04:27N 34°10' W 119°14'0 0.0
2017-Sep-15 03:57N 34°10' W 119°14'0 0.0
2017-Sep-15 03:30N 34°10' W 119°14'0 0.0
2017-Sep-15 02:36N 34°10' W 119°14'0 0.1
2017-Sep-15 02:30N 34°10' W 119°14'0 0.0
2017-Sep-15 02:00N 34°10' W 119°14'0 0.0
2017-Sep-15 01:30N 34°10' W 119°14'0 0.0
2017-Sep-15 01:00N 34°10' W 119°14'0 0.0
2017-Sep-15 00:27N 34°10' W 119°14'0 0.0
2017-Sep-14 23:22N 34°10' W 119°14'0 0.0
2017-Sep-14 22:58N 34°10' W 119°14'0 0.0
2017-Sep-14 22:16N 34°10' W 119°14'0 0.0
2017-Sep-14 21:55N 34°10' W 119°14'0 0.7
2017-Sep-14 21:29N 34°10' W 119°13'0 0.7
2017-Sep-14 21:00N 34°10' W 119°14'0 0.0
2017-Sep-14 20:30N 34°10' W 119°14'0 0.0
2017-Sep-14 20:00N 34°10' W 119°14'0 0.0
2017-Sep-14 19:30N 34°10' W 119°14'0 0.0
2017-Sep-14 18:48N 34°10' W 119°14'0 0.0
2017-Sep-14 18:30N 34°10' W 119°14'0 0.0
2017-Sep-14 18:00N 34°10' W 119°14'0 0.0
2017-Sep-14 17:24N 34°10' W 119°14'0 0.0
2017-Sep-14 17:00N 34°10' W 119°14'0 0.0
2017-Sep-14 16:30N 34°10' W 119°14'0 0.0
2017-Sep-14 16:00N 34°10' W 119°14'0 0.0
2017-Sep-14 15:30N 34°10' W 119°14'0 0.0
2017-Sep-14 15:00N 34°10' W 119°14'0 0.0
2017-Sep-14 14:30N 34°10' W 119°14'0 0.0
2017-Sep-14 13:24N 34°10' W 119°14'0 0.0
2017-Sep-14 13:00N 34°10' W 119°14'0 0.0
2017-Sep-14 12:30N 34°10' W 119°14'0 0.0
2017-Sep-14 12:00N 34°10' W 119°14'0 0.0
2017-Sep-14 11:30N 34°10' W 119°14'0 0.0
2017-Sep-14 10:45N 34°10' W 119°14'0 0.0
2017-Sep-14 10:30N 34°10' W 119°14'0 0.0
2017-Sep-14 10:00N 34°10' W 119°14'0 0.0
2017-Sep-14 09:30N 34°10' W 119°14'0 0.0
2017-Sep-14 09:00N 34°10' W 119°14'0 0.0
2017-Sep-14 08:27N 34°10' W 119°14'0 0.0
2017-Sep-14 08:00N 34°10' W 119°14'0 0.0
2017-Sep-14 07:30N 34°10' W 119°14'0 0.0
2017-Sep-14 06:57N 34°10' W 119°14'0 0.0
2017-Sep-14 06:30N 34°10' W 119°14'0 0.0
2017-Sep-14 06:00N 34°10' W 119°14'0 0.0
2017-Sep-14 05:27N 34°10' W 119°14'0 0.0
2017-Sep-14 04:51N 34°10' W 119°14'0 0.0
2017-Sep-14 04:30N 34°10' W 119°14'0 0.0
2017-Sep-14 04:00N 34°10' W 119°14'0 0.0
2017-Sep-14 03:03N 34°10' W 119°14'0 0.0
2017-Sep-14 02:54N 34°10' W 119°14'0 0.0
2017-Sep-14 02:30N 34°10' W 119°14'0 0.0
2017-Sep-14 02:00N 34°10' W 119°14'0 0.0
2017-Sep-14 01:30N 34°10' W 119°14'0 0.0
2017-Sep-14 00:54N 34°10' W 119°14'0 0.0
2017-Sep-14 00:24N 34°10' W 119°14'0 0.0
2017-Sep-13 23:57N 34°10' W 119°14'0 0.0
2017-Sep-13 23:30N 34°10' W 119°14'0 0.0
2017-Sep-13 22:57N 34°10' W 119°14'0 0.0
2017-Sep-13 22:30N 34°10' W 119°14'0 0.0
2017-Sep-13 21:57N 34°10' W 119°14'0 0.0
2017-Sep-13 21:27N 34°10' W 119°14'0 0.0
2017-Sep-13 20:57N 34°10' W 119°14'  
2017-Sep-10 23:24N 34°10' W 119°14'0 0.1
2017-Sep-10 22:59N 34°10' W 119°14'511.4
2017-Sep-10 22:30N 34°06' W 119°17'714.1
2017-Sep-10 21:59N 33°59' W 119°21'4 8.9
2017-Sep-10 21:30N 34°03' W 119°19'816.0
2017-Sep-10 21:00N 34°10' W 119°13'1 0.0
2017-Sep-09 00:10N 34°10' W 119°14'0 0.0
2017-Sep-08 23:49N 34°10' W 119°14'0 0.2
2017-Sep-08 23:19N 34°10' W 119°14'411.2
2017-Sep-08 22:58N 34°06' W 119°15'817.4
2017-Sep-08 22:31N 33°59' W 119°20'2 4.3
2017-Sep-08 21:59N 33°57' W 119°20'817.3
2017-Sep-08 21:30N 33°50' W 119°15'4 7.4
2017-Sep-08 21:00N 33°48' W 119°11'2 3.9
2017-Sep-08 20:30N 33°48' W 119°09'3 6.2
2017-Sep-08 20:00N 33°45' W 119°10'0 0.6
2017-Sep-08 19:30N 33°45' W 119°09'0 0.2
2017-Sep-08 18:58N 33°45' W 119°09'1 1.8
2017-Sep-08 18:30N 33°46' W 119°09'2 4.8
2017-Sep-08 18:00N 33°46' W 119°12'2 4.0
2017-Sep-08 17:30N 33°48' W 119°13'3 4.6
2017-Sep-08 16:57N 33°47' W 119°10'2 3.5
2017-Sep-08 16:30N 33°46' W 119°12'4 8.1
2017-Sep-08 16:00N 33°45' W 119°16'816.9
2017-Sep-08 15:30N 33°54' W 119°16'917.7
2017-Sep-08 15:00N 34°03' W 119°14'714.5
2017-Sep-08 14:30N 34°10' W 119°13'  
Track history (hours):
 
Tides and Currents Weather Stations Pressure Air Temp Water Temp Dewpoint Dewpoint Depression Visibility Wind Speed Wind Dir Waves Ship Positions

Seabear

Owner: COVELL, JAMES W, LA JOLLA, CA. More information available from US FCC via Universal Licensing System and Coast Guard Vessel Documentation Center.

Last reported at 2017-Sep-16 02:21 UTC. Time now 2017-Sep-19 16:59 UTC.
Position N 34°10' W 119°14'.

Length 12 m.

Type: Pleasure craft. MMSI: 367394470.

Date/timePositionNaut miles runAvg speedWind from/ knotsBaromVisibWave heightAir tempDewpointWater temp
2017-Sep-16 02:21N 34°10' W 119°14'0 0.6
2017-Sep-16 01:50N 34°10' W 119°13'3 8.2
2017-Sep-16 01:25N 34°07' W 119°16'4 9.4
2017-Sep-16 01:00N 34°04' W 119°18'611.2
2017-Sep-16 00:28N 33°59' W 119°23'814.2
2017-Sep-15 23:56N 33°55' W 119°31'712.1
2017-Sep-15 23:24N 33°51' W 119°37'0 1.1
2017-Sep-15 22:59N 33°52' W 119°37'2 4.7
2017-Sep-15 22:30N 33°54' W 119°39'2 3.7
2017-Sep-15 21:59N 33°54' W 119°36'2 0.4
2017-Sep-15 17:33N 33°53' W 119°35'110.3
2017-Sep-15 17:28N 33°53' W 119°36'9 2.9
2017-Sep-15 14:17N 34°00' W 119°30'516.9
2017-Sep-15 14:00N 34°03' W 119°25'714.5
2017-Sep-15 13:31N 34°07' W 119°18'5 6.1
2017-Sep-15 12:45N 34°10' W 119°14'0 0.0
2017-Sep-15 12:30N 34°10' W 119°14'0 0.0
2017-Sep-15 12:00N 34°10' W 119°14'0 0.0
2017-Sep-15 11:30N 34°10' W 119°14'0 0.0
2017-Sep-15 11:00N 34°10' W 119°14'0 0.0
2017-Sep-15 10:30N 34°10' W 119°14'0 0.0
2017-Sep-15 10:00N 34°10' W 119°14'0 0.0
2017-Sep-15 09:30N 34°10' W 119°14'0 0.0
2017-Sep-15 09:00N 34°10' W 119°14'0 0.0
2017-Sep-15 08:30N 34°10' W 119°14'0 0.0
2017-Sep-15 07:54N 34°10' W 119°14'0 0.0
2017-Sep-15 07:30N 34°10' W 119°14'0 0.0
2017-Sep-15 07:00N 34°10' W 119°14'0 0.0
2017-Sep-15 06:30N 34°10' W 119°14'0 0.0
2017-Sep-15 06:00N 34°10' W 119°14'0 0.0
2017-Sep-15 05:30N 34°10' W 119°14'0 0.0
2017-Sep-15 05:00N 34°10' W 119°14'0 0.0
2017-Sep-15 04:27N 34°10' W 119°14'0 0.0
2017-Sep-15 03:57N 34°10' W 119°14'0 0.0
2017-Sep-15 03:30N 34°10' W 119°14'0 0.0
2017-Sep-15 02:36N 34°10' W 119°14'0 0.1
2017-Sep-15 02:30N 34°10' W 119°14'0 0.0
2017-Sep-15 02:00N 34°10' W 119°14'0 0.0
2017-Sep-15 01:30N 34°10' W 119°14'0 0.0
2017-Sep-15 01:00N 34°10' W 119°14'0 0.0
2017-Sep-15 00:27N 34°10' W 119°14'0 0.0
2017-Sep-14 23:22N 34°10' W 119°14'0 0.0
2017-Sep-14 22:58N 34°10' W 119°14'0 0.0
2017-Sep-14 22:16N 34°10' W 119°14'0 0.0
2017-Sep-14 21:55N 34°10' W 119°14'0 0.7
2017-Sep-14 21:29N 34°10' W 119°13'0 0.7
2017-Sep-14 21:00N 34°10' W 119°14'0 0.0
2017-Sep-14 20:30N 34°10' W 119°14'0 0.0
2017-Sep-14 20:00N 34°10' W 119°14'0 0.0
2017-Sep-14 19:30N 34°10' W 119°14'0 0.0
2017-Sep-14 18:48N 34°10' W 119°14'0 0.0
2017-Sep-14 18:30N 34°10' W 119°14'0 0.0
2017-Sep-14 18:00N 34°10' W 119°14'0 0.0
2017-Sep-14 17:24N 34°10' W 119°14'0 0.0
2017-Sep-14 17:00N 34°10' W 119°14'0 0.0
2017-Sep-14 16:30N 34°10' W 119°14'0 0.0
2017-Sep-14 16:00N 34°10' W 119°14'0 0.0
2017-Sep-14 15:30N 34°10' W 119°14'0 0.0
2017-Sep-14 15:00N 34°10' W 119°14'0 0.0
2017-Sep-14 14:30N 34°10' W 119°14'0 0.0
2017-Sep-14 13:24N 34°10' W 119°14'0 0.0
2017-Sep-14 13:00N 34°10' W 119°14'0 0.0
2017-Sep-14 12:30N 34°10' W 119°14'0 0.0
2017-Sep-14 12:00N 34°10' W 119°14'0 0.0
2017-Sep-14 11:30N 34°10' W 119°14'0 0.0
2017-Sep-14 10:45N 34°10' W 119°14'0 0.0
2017-Sep-14 10:30N 34°10' W 119°14'0 0.0
2017-Sep-14 10:00N 34°10' W 119°14'0 0.0
2017-Sep-14 09:30N 34°10' W 119°14'0 0.0
2017-Sep-14 09:00N 34°10' W 119°14'0 0.0
2017-Sep-14 08:27N 34°10' W 119°14'0 0.0
2017-Sep-14 08:00N 34°10' W 119°14'0 0.0
2017-Sep-14 07:30N 34°10' W 119°14'0 0.0
2017-Sep-14 06:57N 34°10' W 119°14'0 0.0
2017-Sep-14 06:30N 34°10' W 119°14'0 0.0
2017-Sep-14 06:00N 34°10' W 119°14'0 0.0
2017-Sep-14 05:27N 34°10' W 119°14'0 0.0
2017-Sep-14 04:51N 34°10' W 119°14'0 0.0
2017-Sep-14 04:30N 34°10' W 119°14'0 0.0
2017-Sep-14 04:00N 34°10' W 119°14'0 0.0
2017-Sep-14 03:03N 34°10' W 119°14'0 0.0
2017-Sep-14 02:54N 34°10' W 119°14'0 0.0
2017-Sep-14 02:30N 34°10' W 119°14'0 0.0
2017-Sep-14 02:00N 34°10' W 119°14'0 0.0
2017-Sep-14 01:30N 34°10' W 119°14'0 0.0
2017-Sep-14 00:54N 34°10' W 119°14'0 0.0
2017-Sep-14 00:24N 34°10' W 119°14'0 0.0
2017-Sep-13 23:57N 34°10' W 119°14'0 0.0
2017-Sep-13 23:30N 34°10' W 119°14'0 0.0
2017-Sep-13 22:57N 34°10' W 119°14'0 0.0
2017-Sep-13 22:30N 34°10' W 119°14'0 0.0
2017-Sep-13 21:57N 34°10' W 119°14'0 0.0
2017-Sep-13 21:27N 34°10' W 119°14'0 0.0
2017-Sep-13 20:57N 34°10' W 119°14'  
2017-Sep-10 23:24N 34°10' W 119°14'0 0.1
2017-Sep-10 22:59N 34°10' W 119°14'511.4
2017-Sep-10 22:30N 34°06' W 119°17'714.1
2017-Sep-10 21:59N 33°59' W 119°21'4 8.9
2017-Sep-10 21:30N 34°03' W 119°19'816.0
2017-Sep-10 21:00N 34°10' W 119°13'1 0.0
2017-Sep-09 00:10N 34°10' W 119°14'0 0.0
2017-Sep-08 23:49N 34°10' W 119°14'0 0.2
2017-Sep-08 23:19N 34°10' W 119°14'411.2
2017-Sep-08 22:58N 34°06' W 119°15'817.4
2017-Sep-08 22:31N 33°59' W 119°20'2 4.3
2017-Sep-08 21:59N 33°57' W 119°20'817.3
2017-Sep-08 21:30N 33°50' W 119°15'4 7.4
2017-Sep-08 21:00N 33°48' W 119°11'2 3.9
2017-Sep-08 20:30N 33°48' W 119°09'3 6.2
2017-Sep-08 20:00N 33°45' W 119°10'0 0.6
2017-Sep-08 19:30N 33°45' W 119°09'0 0.2
2017-Sep-08 18:58N 33°45' W 119°09'1 1.8
2017-Sep-08 18:30N 33°46' W 119°09'2 4.8
2017-Sep-08 18:00N 33°46' W 119°12'2 4.0
2017-Sep-08 17:30N 33°48' W 119°13'3 4.6
2017-Sep-08 16:57N 33°47' W 119°10'2 3.5
2017-Sep-08 16:30N 33°46' W 119°12'4 8.1
2017-Sep-08 16:00N 33°45' W 119°16'816.9
2017-Sep-08 15:30N 33°54' W 119°16'917.7
2017-Sep-08 15:00N 34°03' W 119°14'714.5
2017-Sep-08 14:30N 34°10' W 119°13'  

Dump ship's entire track history